createdAt,value
2022-10-17T00:00:43.312Z,17.92
2022-10-17T00:01:43.663Z,17.89
2022-10-17T00:02:43.836Z,17.91
2022-10-17T00:03:44.129Z,17.91
2022-10-17T00:04:44.455Z,17.92
2022-10-17T00:05:44.808Z,17.94
2022-10-17T00:06:44.971Z,17.92
2022-10-17T00:07:45.320Z,17.94
2022-10-17T00:08:45.601Z,17.94
2022-10-17T00:09:45.892Z,17.91
2022-10-17T00:10:46.242Z,17.92
2022-10-17T00:11:46.561Z,17.95
2022-10-17T00:12:46.910Z,17.95
2022-10-17T00:13:47.129Z,17.92
2022-10-17T00:14:47.433Z,17.95
2022-10-17T00:15:47.747Z,17.94
2022-10-17T00:16:48.043Z,17.89
2022-10-17T00:17:48.308Z,17.92
2022-10-17T00:18:48.637Z,17.91
2022-10-17T00:19:48.981Z,17.91
2022-10-17T00:20:49.263Z,17.91
2022-10-17T00:21:49.572Z,17.94
2022-10-17T00:22:49.830Z,17.92
2022-10-17T00:23:50.160Z,17.89
2022-10-17T00:24:50.436Z,17.92
2022-10-17T00:25:50.755Z,17.94
2022-10-17T00:26:51.083Z,17.91
2022-10-17T00:27:51.365Z,17.92
2022-10-17T00:28:51.750Z,17.91
2022-10-17T00:29:51.903Z,17.91
2022-10-17T00:30:52.208Z,17.92
2022-10-17T00:32:52.810Z,17.85
2022-10-17T00:33:53.072Z,17.84
2022-10-17T00:34:53.437Z,17.84
2022-10-17T00:35:53.715Z,17.81
2022-10-17T00:36:54.089Z,17.82
2022-10-17T00:37:54.256Z,17.78
2022-10-17T00:38:54.602Z,17.74
2022-10-17T00:39:54.905Z,17.78
2022-10-17T00:41:55.496Z,17.76
2022-10-17T00:42:55.815Z,17.74
2022-10-17T00:43:56.127Z,17.76
2022-10-17T00:44:56.437Z,17.74
2022-10-17T00:45:56.772Z,17.76
2022-10-17T00:46:57.020Z,17.70
2022-10-17T00:47:57.186Z,17.74
2022-10-17T00:48:57.518Z,17.76
2022-10-17T00:49:57.924Z,17.78
2022-10-17T00:50:58.166Z,17.71
2022-10-17T00:51:58.337Z,17.70
2022-10-17T00:52:58.676Z,17.70
2022-10-17T00:53:58.967Z,17.67
2022-10-17T00:54:59.279Z,17.66
2022-10-17T00:55:59.558Z,17.67
2022-10-17T00:56:59.894Z,17.69
2022-10-17T00:58:00.191Z,17.66
2022-10-17T00:59:00.516Z,17.67
2022-10-17T01:00:00.824Z,17.69
2022-10-17T01:01:01.188Z,17.67
2022-10-17T01:02:01.350Z,17.70
2022-10-17T01:03:01.654Z,17.69
2022-10-17T01:04:02.002Z,17.69
2022-10-17T01:05:02.319Z,17.69
2022-10-17T01:06:02.606Z,17.70
2022-10-17T01:07:02.903Z,17.69
2022-10-17T01:08:03.257Z,17.69
2022-10-17T01:09:03.525Z,17.67
2022-10-17T01:10:03.816Z,17.66
2022-10-17T01:11:04.175Z,17.67
2022-10-17T01:12:04.453Z,17.62
2022-10-17T01:13:04.733Z,17.64
2022-10-17T01:14:05.107Z,17.64
2022-10-17T01:15:05.411Z,17.64
2022-10-17T01:16:05.676Z,17.64
2022-10-17T01:17:06.030Z,17.63
2022-10-17T01:18:06.282Z,17.59
2022-10-17T01:19:06.608Z,17.57
2022-10-17T01:20:06.971Z,17.54
2022-10-17T01:21:07.166Z,17.54
2022-10-17T01:22:07.465Z,17.54
2022-10-17T01:23:07.776Z,17.59
2022-10-17T01:24:08.112Z,17.54
2022-10-17T01:25:08.377Z,17.50
2022-10-17T01:26:08.692Z,17.53
2022-10-17T01:27:09.002Z,17.47
2022-10-17T01:28:09.356Z,17.48
2022-10-17T01:29:09.718Z,17.48
2022-10-17T01:30:09.901Z,17.47
2022-10-17T01:31:10.230Z,17.47
2022-10-17T01:32:10.520Z,17.48
2022-10-17T01:33:10.795Z,17.44
2022-10-17T01:34:11.101Z,17.41
2022-10-17T01:35:11.395Z,17.41
2022-10-17T01:36:11.655Z,17.41
2022-10-17T01:37:12.018Z,17.41
2022-10-17T01:38:12.285Z,17.43
2022-10-17T01:39:12.693Z,17.43
2022-10-17T01:40:12.941Z,17.41
2022-10-17T01:41:13.267Z,17.46
2022-10-17T01:42:13.513Z,17.41
2022-10-17T01:43:13.764Z,17.36
2022-10-17T01:44:14.014Z,17.36
2022-10-17T01:45:14.324Z,17.35
2022-10-17T01:46:14.625Z,17.35
2022-10-17T01:47:14.978Z,17.30
2022-10-17T01:48:15.269Z,17.29
2022-10-17T01:49:15.537Z,17.28
2022-10-17T01:50:15.876Z,17.28
2022-10-17T01:51:16.165Z,17.30
2022-10-17T01:52:17.326Z,17.30
2022-10-17T01:53:17.048Z,17.29
2022-10-17T01:54:17.074Z,17.32
2022-10-17T01:55:17.344Z,17.35
2022-10-17T01:56:17.659Z,17.35
2022-10-17T01:57:17.990Z,17.36
2022-10-17T01:58:18.314Z,17.40
2022-10-17T01:59:18.610Z,17.43
2022-10-17T02:00:18.956Z,17.41
2022-10-17T02:01:19.311Z,17.43
2022-10-17T02:02:19.400Z,17.43
2022-10-17T02:03:19.748Z,17.43
2022-10-17T02:04:20.020Z,17.47
2022-10-17T02:05:20.386Z,17.46
2022-10-17T02:06:20.576Z,17.48
2022-10-17T02:07:20.971Z,17.47
2022-10-17T02:08:21.133Z,17.48
2022-10-17T02:09:21.461Z,17.50
2022-10-17T02:10:21.753Z,17.50
2022-10-17T02:11:22.061Z,17.53
2022-10-17T02:12:22.362Z,17.51
2022-10-17T02:13:22.717Z,17.50
2022-10-17T02:14:22.876Z,17.51
2022-10-17T02:15:23.166Z,17.51
2022-10-17T02:16:23.475Z,17.48
2022-10-17T02:17:23.763Z,17.46
2022-10-17T02:18:24.080Z,17.43
2022-10-17T02:19:24.371Z,17.40
2022-10-17T02:20:24.674Z,17.41
2022-10-17T02:21:24.940Z,17.41
2022-10-17T02:22:25.284Z,17.38
2022-10-17T02:23:25.656Z,17.36
2022-10-17T02:24:25.876Z,17.35
2022-10-17T02:25:27.158Z,17.30
2022-10-17T02:26:26.440Z,17.32
2022-10-17T02:27:27.021Z,17.32
2022-10-17T02:28:26.997Z,17.33
2022-10-17T02:29:27.328Z,17.30
2022-10-17T02:30:27.647Z,17.30
2022-10-17T02:31:27.931Z,17.28
2022-10-17T02:32:28.206Z,17.20
2022-10-17T02:33:28.540Z,17.22
2022-10-17T02:34:28.844Z,17.23
2022-10-17T02:35:29.166Z,17.20
2022-10-17T02:36:29.432Z,17.20
2022-10-17T02:37:30.278Z,17.23
2022-10-17T02:38:30.068Z,17.20
2022-10-17T02:39:30.311Z,17.18
2022-10-17T02:40:30.652Z,17.18
2022-10-17T02:41:30.855Z,17.17
2022-10-17T02:42:31.290Z,17.18
2022-10-17T02:43:31.360Z,17.14
2022-10-17T02:44:31.650Z,17.14
2022-10-17T02:45:31.965Z,17.15
2022-10-17T02:46:32.239Z,17.17
2022-10-17T02:47:32.566Z,17.14
2022-10-17T02:48:32.844Z,17.15
2022-10-17T02:49:33.128Z,17.13
2022-10-17T02:50:33.458Z,17.08
2022-10-17T02:51:33.754Z,17.07
2022-10-17T02:52:33.977Z,17.07
2022-10-17T02:53:34.317Z,17.08
2022-10-17T02:54:34.617Z,17.08
2022-10-17T02:55:34.915Z,17.11
2022-10-17T02:56:35.205Z,17.06
2022-10-17T02:57:35.522Z,17.10
2022-10-17T02:58:35.796Z,17.10
2022-10-17T02:59:36.217Z,17.10
2022-10-17T03:00:36.438Z,17.13
2022-10-17T03:01:36.807Z,17.10
2022-10-17T03:02:36.997Z,17.10
2022-10-17T03:03:37.303Z,17.13
2022-10-17T03:04:37.543Z,17.11
2022-10-17T03:05:37.924Z,17.11
2022-10-17T03:06:38.224Z,17.10
2022-10-17T03:07:38.512Z,17.10
2022-10-17T03:08:39.196Z,17.11
2022-10-17T03:09:39.062Z,17.08
2022-10-17T03:10:39.286Z,17.11
2022-10-17T03:11:39.611Z,17.11
2022-10-17T03:12:39.963Z,17.14
2022-10-17T03:13:40.279Z,17.11
2022-10-17T03:14:40.539Z,17.13
2022-10-17T03:15:40.810Z,17.11
2022-10-17T03:16:41.226Z,17.11
2022-10-17T03:17:41.414Z,17.15
2022-10-17T03:18:44.330Z,17.15
2022-10-17T03:19:42.972Z,17.17
2022-10-17T03:20:42.278Z,17.13
2022-10-17T03:21:42.557Z,17.13
2022-10-17T03:22:42.874Z,17.13
2022-10-17T03:23:43.205Z,17.13
2022-10-17T03:24:43.504Z,17.17
2022-10-17T03:25:43.788Z,17.14
2022-10-17T03:26:44.129Z,17.11
2022-10-17T03:27:44.387Z,17.08
2022-10-17T03:28:44.762Z,17.07
2022-10-17T03:29:45.070Z,17.10
2022-10-17T03:30:45.357Z,17.08
2022-10-17T03:31:45.766Z,17.07
2022-10-17T03:32:46.020Z,17.04
2022-10-17T03:33:46.352Z,17.04
2022-10-17T03:34:46.627Z,16.99
2022-10-17T03:35:47.030Z,16.98
2022-10-17T03:36:47.277Z,16.96
2022-10-17T03:37:47.594Z,16.98
2022-10-17T03:38:47.834Z,16.90
2022-10-17T03:39:48.075Z,16.80
2022-10-17T03:40:48.340Z,16.80
2022-10-17T03:41:48.657Z,16.78
2022-10-17T03:42:48.920Z,16.78
2022-10-17T03:43:49.122Z,16.77
2022-10-17T03:44:49.437Z,16.73
2022-10-17T03:45:49.731Z,16.70
2022-10-17T03:46:50.027Z,16.71
2022-10-17T03:47:50.420Z,16.70
2022-10-17T03:48:50.580Z,16.71
2022-10-17T03:49:50.899Z,16.71
2022-10-17T03:50:51.140Z,16.75
2022-10-17T03:51:51.430Z,16.74
2022-10-17T03:52:51.798Z,16.70
2022-10-17T03:53:52.040Z,16.73
2022-10-17T03:54:52.345Z,16.75
2022-10-17T03:55:52.621Z,16.73
2022-10-17T03:56:52.994Z,16.75
2022-10-17T03:57:53.292Z,16.73
2022-10-17T03:58:53.618Z,16.73
2022-10-17T03:59:53.926Z,16.74
2022-10-17T04:00:54.303Z,16.75
2022-10-17T04:01:54.599Z,16.78
2022-10-17T04:02:54.820Z,16.80
2022-10-17T04:03:55.104Z,16.81
2022-10-17T04:04:55.447Z,16.83
2022-10-17T04:05:55.720Z,16.85
2022-10-17T04:06:56.069Z,16.83
2022-10-17T04:07:58.665Z,16.83
2022-10-17T04:08:56.611Z,16.88
2022-10-17T04:09:56.968Z,16.83
2022-10-17T04:10:57.289Z,16.83
2022-10-17T04:11:57.557Z,16.83
2022-10-17T04:12:57.828Z,16.83
2022-10-17T04:13:58.159Z,16.86
2022-10-17T04:14:58.368Z,16.89
2022-10-17T04:15:58.678Z,16.92
2022-10-17T04:16:58.996Z,16.90
2022-10-17T04:17:59.373Z,16.93
2022-10-17T04:18:59.610Z,16.93
2022-10-17T04:19:59.897Z,16.93
2022-10-17T04:21:00.181Z,16.92
2022-10-17T04:22:00.422Z,16.93
2022-10-17T04:23:00.779Z,16.92
2022-10-17T04:24:01.021Z,16.92
2022-10-17T04:25:01.267Z,16.93
2022-10-17T04:26:01.499Z,16.95
2022-10-17T04:27:01.774Z,16.95
2022-10-17T04:28:02.100Z,16.96
2022-10-17T04:29:02.402Z,16.89
2022-10-17T04:30:02.775Z,16.88
2022-10-17T04:31:03.066Z,16.89
2022-10-17T04:32:03.376Z,16.86
2022-10-17T04:33:03.687Z,16.85
2022-10-17T04:34:04.002Z,16.89
2022-10-17T04:35:04.311Z,16.88
2022-10-17T04:36:04.615Z,16.90
2022-10-17T04:37:04.975Z,16.90
2022-10-17T04:38:05.178Z,16.89
2022-10-17T04:39:05.409Z,16.90
2022-10-17T04:40:05.795Z,16.89
2022-10-17T04:41:06.143Z,16.88
2022-10-17T04:42:06.475Z,16.85
2022-10-17T04:43:06.645Z,16.85
2022-10-17T04:44:06.924Z,16.83
2022-10-17T04:45:07.216Z,16.77
2022-10-17T04:46:07.470Z,16.75
2022-10-17T04:47:07.830Z,16.75
2022-10-17T04:48:08.092Z,16.75
2022-10-17T04:49:08.293Z,16.74
2022-10-17T04:50:08.653Z,16.65
2022-10-17T04:51:08.937Z,16.60
2022-10-17T04:52:09.256Z,16.59
2022-10-17T04:53:09.542Z,16.59
2022-10-17T04:54:09.727Z,16.60
2022-10-17T04:55:10.039Z,16.65
2022-10-17T04:56:10.360Z,16.68
2022-10-17T04:57:10.716Z,16.70
2022-10-17T04:58:11.020Z,16.70
2022-10-17T04:59:11.273Z,16.68
2022-10-17T05:00:11.543Z,16.67
2022-10-17T05:01:11.865Z,16.65
2022-10-17T05:02:12.176Z,16.62
2022-10-17T05:03:12.394Z,16.60
2022-10-17T05:04:12.690Z,16.56
2022-10-17T05:05:13.013Z,16.58
2022-10-17T05:06:13.348Z,16.60
2022-10-17T05:07:13.593Z,16.58
2022-10-17T05:08:13.884Z,16.53
2022-10-17T05:09:14.105Z,16.52
2022-10-17T05:10:14.407Z,16.52
2022-10-17T05:11:14.583Z,16.55
2022-10-17T05:12:14.863Z,16.49
2022-10-17T05:13:15.137Z,16.45
2022-10-17T05:14:15.466Z,16.38
2022-10-17T05:15:15.769Z,16.38
2022-10-17T05:16:16.095Z,16.34
2022-10-17T05:17:16.396Z,16.35
2022-10-17T05:18:16.658Z,16.35
2022-10-17T05:19:16.949Z,16.34
2022-10-17T05:20:17.196Z,16.33
2022-10-17T05:21:17.573Z,16.31
2022-10-17T05:22:17.878Z,16.30
2022-10-17T05:23:18.231Z,16.30
2022-10-17T05:24:18.407Z,16.30
2022-10-17T05:25:18.744Z,16.30
2022-10-17T05:26:18.910Z,16.27
2022-10-17T05:27:19.639Z,16.30
2022-10-17T05:28:19.502Z,16.27
2022-10-17T05:29:19.886Z,16.27
2022-10-17T05:30:20.113Z,16.27
2022-10-17T05:31:20.340Z,16.31
2022-10-17T05:32:20.747Z,16.31
2022-10-17T05:33:20.950Z,16.30
2022-10-17T05:34:21.310Z,16.30
2022-10-17T05:35:21.545Z,16.30
2022-10-17T05:36:21.775Z,16.27
2022-10-17T05:37:21.981Z,16.31
2022-10-17T05:38:22.305Z,16.30
2022-10-17T05:39:22.714Z,16.27
2022-10-17T05:40:22.901Z,16.22
2022-10-17T05:41:23.214Z,16.22
2022-10-17T05:42:23.487Z,16.25
2022-10-17T05:43:23.659Z,16.25
2022-10-17T05:44:24.039Z,16.26
2022-10-17T05:45:24.287Z,16.34
2022-10-17T05:46:24.649Z,16.34
2022-10-17T05:47:24.899Z,16.34
2022-10-17T05:48:25.086Z,16.31
2022-10-17T05:49:33.831Z,16.34
2022-10-17T05:50:26.641Z,16.34
2022-10-17T05:51:25.983Z,16.34
2022-10-17T05:52:26.199Z,16.37
2022-10-17T05:53:26.510Z,16.35
2022-10-17T05:54:26.761Z,16.35
2022-10-17T05:55:27.029Z,16.35
2022-10-17T05:56:27.324Z,16.37
2022-10-17T05:57:27.502Z,16.37
2022-10-17T05:59:29.014Z,16.37
2022-10-17T06:00:28.281Z,16.42
2022-10-17T06:01:28.526Z,16.42
2022-10-17T06:02:29.170Z,16.44
2022-10-17T06:03:29.054Z,16.42
2022-10-17T06:04:29.400Z,16.45
2022-10-17T06:05:29.681Z,16.42
2022-10-17T06:06:29.973Z,16.42
2022-10-17T06:07:30.148Z,16.49
2022-10-17T06:08:30.525Z,16.52
2022-10-17T06:09:30.774Z,16.48
2022-10-17T06:10:31.013Z,16.49
2022-10-17T06:11:31.304Z,16.53
2022-10-17T06:12:31.831Z,16.52
2022-10-17T06:13:31.808Z,16.53
2022-10-17T06:14:32.073Z,16.55
2022-10-17T06:15:32.276Z,16.55
2022-10-17T06:16:32.517Z,16.55
2022-10-17T06:17:32.773Z,16.52
2022-10-17T06:18:33.022Z,16.55
2022-10-17T06:19:33.255Z,16.58
2022-10-17T06:20:33.522Z,16.58
2022-10-17T06:21:33.759Z,16.58
2022-10-17T06:22:34.046Z,16.56
2022-10-17T06:23:34.286Z,16.56
2022-10-17T06:24:34.546Z,16.55
2022-10-17T06:25:34.823Z,16.58
2022-10-17T06:26:35.011Z,16.59
2022-10-17T06:27:35.290Z,16.60
2022-10-17T06:28:35.627Z,16.62
2022-10-17T06:29:35.843Z,16.60
2022-10-17T06:30:36.348Z,16.59
2022-10-17T06:31:36.370Z,16.60
2022-10-17T06:32:36.670Z,16.63
2022-10-17T06:33:36.929Z,16.63
2022-10-17T06:34:37.173Z,16.65
2022-10-17T06:35:37.431Z,16.67
2022-10-17T06:36:37.703Z,16.56
2022-10-17T06:37:38.439Z,16.53
2022-10-17T06:38:38.270Z,16.50
2022-10-17T06:39:38.487Z,16.49
2022-10-17T06:40:38.709Z,16.52
2022-10-17T06:41:39.048Z,16.55
2022-10-17T06:42:39.413Z,16.56
2022-10-17T06:43:40.119Z,16.55
2022-10-17T06:44:39.972Z,16.55
2022-10-17T06:45:40.217Z,16.56
2022-10-17T06:46:40.497Z,16.58
2022-10-17T06:47:40.747Z,16.56
2022-10-17T06:48:41.276Z,16.56
2022-10-17T06:49:41.303Z,16.55
2022-10-17T06:50:41.597Z,16.58
2022-10-17T06:51:41.775Z,16.60
2022-10-17T06:52:42.138Z,16.58
2022-10-17T06:53:42.413Z,16.59
2022-10-17T06:54:42.640Z,16.60
2022-10-17T06:55:42.873Z,16.59
2022-10-17T06:56:43.149Z,16.68
2022-10-17T06:57:43.391Z,16.71
2022-10-17T06:58:43.642Z,16.70
2022-10-17T06:59:43.901Z,16.74
2022-10-17T07:00:44.296Z,16.77
2022-10-17T07:01:46.965Z,16.77
2022-10-17T07:02:44.626Z,16.78
2022-10-17T07:03:44.975Z,16.86
2022-10-17T07:04:45.248Z,16.85
2022-10-17T07:05:45.553Z,16.90
2022-10-17T07:06:45.800Z,16.90
2022-10-17T07:07:47.464Z,16.95
2022-10-17T07:08:46.297Z,16.96
2022-10-17T07:09:46.596Z,17.03
2022-10-17T07:10:46.922Z,17.07
2022-10-17T07:11:47.174Z,17.13
2022-10-17T07:12:47.397Z,17.10
2022-10-17T07:13:47.822Z,17.15
2022-10-17T07:14:47.871Z,17.18
2022-10-17T07:15:48.578Z,17.22
2022-10-17T07:16:48.517Z,17.26
2022-10-17T07:17:48.686Z,17.32
2022-10-17T07:18:48.994Z,17.36
2022-10-17T07:19:49.229Z,17.41
2022-10-17T07:20:49.460Z,17.46
2022-10-17T07:21:49.711Z,17.50
2022-10-17T07:22:49.962Z,17.59
2022-10-17T07:23:50.322Z,17.69
2022-10-17T07:25:50.830Z,17.82
2022-10-17T07:26:51.252Z,17.87
2022-10-17T07:27:51.459Z,17.89
2022-10-17T07:28:51.837Z,17.95
2022-10-17T07:29:52.016Z,18.07
2022-10-17T07:30:54.451Z,18.15
2022-10-17T07:31:52.656Z,18.21
2022-10-17T07:32:52.878Z,18.24
2022-10-17T07:33:53.163Z,18.33
2022-10-17T07:34:53.376Z,18.36
2022-10-17T07:35:53.682Z,18.40
2022-10-17T07:36:54.029Z,18.42
2022-10-17T07:37:54.140Z,18.43
2022-10-17T07:38:54.398Z,18.47
2022-10-17T07:39:54.656Z,18.46
2022-10-17T07:40:54.958Z,18.52
2022-10-17T07:41:55.218Z,18.50
2022-10-17T07:42:55.474Z,18.50
2022-10-17T07:43:55.751Z,18.46
2022-10-17T07:44:56.016Z,18.47
2022-10-17T07:45:56.241Z,18.47
2022-10-17T07:46:56.585Z,18.43
2022-10-17T07:47:56.848Z,18.47
2022-10-17T07:48:57.132Z,18.52
2022-10-17T07:49:57.352Z,18.59
2022-10-17T07:50:57.616Z,18.58
2022-10-17T07:51:57.939Z,18.58
2022-10-17T07:52:58.202Z,18.62
2022-10-17T07:53:58.447Z,18.59
2022-10-17T07:54:58.691Z,18.70
2022-10-17T07:55:58.979Z,18.76
2022-10-17T07:56:59.195Z,18.79
2022-10-17T07:57:59.555Z,18.80
2022-10-17T07:59:01.655Z,18.80
2022-10-17T08:00:00.095Z,18.87
2022-10-17T08:01:00.368Z,18.87
2022-10-17T08:02:00.598Z,18.94
2022-10-17T08:03:00.974Z,18.99
2022-10-17T08:04:01.197Z,18.98
2022-10-17T08:05:01.465Z,18.94
2022-10-17T08:06:01.775Z,18.91
2022-10-17T08:07:18.321Z,18.84
2022-10-17T08:08:03.289Z,18.73
2022-10-17T08:09:02.613Z,18.70
2022-10-17T08:10:02.943Z,18.76
2022-10-17T08:11:07.007Z,18.82
2022-10-17T08:12:03.565Z,18.84
2022-10-17T08:13:03.816Z,18.94
2022-10-17T08:14:04.066Z,18.98
2022-10-17T08:15:04.324Z,19.08
2022-10-17T08:16:04.608Z,19.13
2022-10-17T08:17:04.937Z,19.06
2022-10-17T08:18:05.268Z,19.05
2022-10-17T08:19:05.567Z,19.06
2022-10-17T08:20:05.787Z,19.08
2022-10-17T08:21:06.080Z,19.13
2022-10-17T08:22:06.369Z,19.14
2022-10-17T08:23:06.648Z,19.11
2022-10-17T08:24:06.913Z,19.14
2022-10-17T08:25:07.210Z,19.28
2022-10-17T08:26:07.615Z,19.38
2022-10-17T08:27:07.785Z,19.39
2022-10-17T08:29:08.488Z,19.55
2022-10-17T08:30:08.575Z,19.60
2022-10-17T08:31:08.850Z,19.68
2022-10-17T08:32:09.921Z,19.70
2022-10-17T08:33:09.358Z,19.66
2022-10-17T08:34:09.673Z,19.72
2022-10-17T08:35:09.912Z,19.73
2022-10-17T08:36:10.167Z,19.76
2022-10-17T08:38:13.277Z,19.86
2022-10-17T08:39:11.014Z,19.84
2022-10-17T08:40:11.278Z,19.91
2022-10-17T08:41:11.553Z,20.03
2022-10-17T08:42:11.874Z,20.08
2022-10-17T08:43:12.061Z,20.08
2022-10-17T08:44:12.298Z,20.05
2022-10-17T08:45:12.574Z,20.09
2022-10-17T08:46:12.877Z,20.13
2022-10-17T08:47:13.075Z,20.20
2022-10-17T08:48:13.321Z,20.24
2022-10-17T08:49:13.649Z,20.27
2022-10-17T08:50:13.882Z,20.33
2022-10-17T08:51:14.127Z,20.38
2022-10-17T08:52:14.345Z,20.25
2022-10-17T08:53:14.730Z,20.23
2022-10-17T08:54:14.971Z,20.24
2022-10-17T08:55:15.332Z,20.27
2022-10-17T08:56:19.990Z,20.28
2022-10-17T08:57:16.762Z,20.30
2022-10-17T08:58:16.032Z,20.28
2022-10-17T08:59:16.265Z,20.30
2022-10-17T09:00:16.540Z,20.30
2022-10-17T09:01:16.816Z,20.31
2022-10-17T09:02:17.069Z,20.35
2022-10-17T09:03:17.392Z,20.42
2022-10-17T09:04:17.692Z,20.43
2022-10-17T09:05:19.340Z,20.47
2022-10-17T09:06:18.171Z,20.39
2022-10-17T09:07:18.614Z,20.43
2022-10-17T09:08:18.816Z,20.43
2022-10-17T09:09:19.069Z,20.34
2022-10-17T09:10:19.353Z,20.28
2022-10-17T09:11:19.627Z,20.28
2022-10-17T09:12:20.331Z,20.34
2022-10-17T09:13:20.182Z,20.39
2022-10-17T09:14:20.448Z,20.49
2022-10-17T09:15:20.688Z,20.56
2022-10-17T09:16:20.971Z,20.62
2022-10-17T09:17:21.300Z,20.59
2022-10-17T09:18:22.169Z,20.56
2022-10-17T09:19:21.731Z,20.58
2022-10-17T09:20:22.010Z,20.54
2022-10-17T09:21:22.273Z,20.39
2022-10-17T09:22:22.554Z,20.33
2022-10-17T09:23:22.839Z,20.30
2022-10-17T09:24:23.223Z,20.35
2022-10-17T09:25:24.024Z,20.28
2022-10-17T09:26:23.787Z,20.27
2022-10-17T09:27:24.180Z,20.20
2022-10-17T09:28:24.424Z,20.18
2022-10-17T09:29:24.647Z,20.15
2022-10-17T09:30:44.052Z,20.20
2022-10-17T09:31:26.203Z,20.12
2022-10-17T09:32:25.555Z,20.00
2022-10-17T09:33:35.982Z,19.97
2022-10-17T09:34:27.578Z,19.95
2022-10-17T09:35:26.371Z,20.00
2022-10-17T09:36:26.591Z,20.03
2022-10-17T09:37:26.878Z,20.12
2022-10-17T09:38:27.150Z,20.12
2022-10-17T09:39:27.413Z,20.15
2022-10-17T09:40:27.644Z,20.20
2022-10-17T09:42:29.439Z,20.27
2022-10-17T09:43:28.571Z,20.25
2022-10-17T09:44:28.871Z,20.28
2022-10-17T09:45:29.150Z,20.25
2022-10-17T09:46:29.409Z,20.24
2022-10-17T09:47:29.658Z,20.28
2022-10-17T09:48:29.892Z,20.34
2022-10-17T09:49:30.127Z,20.38
2022-10-17T09:50:30.403Z,20.41
2022-10-17T09:51:30.709Z,20.41
2022-10-17T09:52:31.427Z,20.51
2022-10-17T09:53:31.247Z,20.58
2022-10-17T09:54:31.554Z,20.68
2022-10-17T09:55:31.809Z,20.74
2022-10-17T09:56:32.123Z,20.79
2022-10-17T09:57:32.359Z,20.86
2022-10-17T09:58:32.646Z,20.96
2022-10-17T09:59:32.907Z,21.01
2022-10-17T10:00:33.258Z,20.99
2022-10-17T10:01:33.422Z,20.95
2022-10-17T10:02:34.043Z,20.98
2022-10-17T10:03:33.993Z,21.08
2022-10-17T10:04:46.948Z,21.19
2022-10-17T10:05:35.511Z,21.21
2022-10-17T10:06:34.799Z,21.32
2022-10-17T10:07:35.034Z,21.39
2022-10-17T10:08:35.380Z,21.45
2022-10-17T10:09:38.050Z,21.41
2022-10-17T10:10:35.914Z,21.50
2022-10-17T10:11:36.187Z,21.61
2022-10-17T10:12:57.448Z,21.67
2022-10-17T10:13:36.809Z,21.75
2022-10-17T10:14:37.063Z,21.83
2022-10-17T10:15:37.362Z,21.91
2022-10-17T10:16:37.569Z,21.92
2022-10-17T10:17:37.956Z,21.94
2022-10-17T10:18:38.228Z,22.01
2022-10-17T10:19:38.532Z,22.09
2022-10-17T10:20:38.761Z,22.20
2022-10-17T10:21:39.064Z,22.38
2022-10-17T10:22:39.279Z,22.53
2022-10-17T10:23:39.609Z,22.69
2022-10-17T10:24:39.819Z,22.77
2022-10-17T10:25:40.135Z,22.99
2022-10-17T10:26:40.346Z,23.24
2022-10-17T10:27:40.662Z,23.71
2022-10-17T10:28:40.984Z,24.23
2022-10-17T10:29:41.207Z,24.59
2022-10-17T10:30:41.431Z,25.00
2022-10-17T10:31:41.707Z,25.54
2022-10-17T10:32:41.964Z,26.09
2022-10-17T10:33:42.221Z,26.47
2022-10-17T10:34:42.504Z,26.42
2022-10-17T10:35:42.765Z,26.62
2022-10-17T10:36:43.036Z,26.49
2022-10-17T10:37:43.243Z,26.36
2022-10-17T10:38:43.503Z,26.27
2022-10-17T10:39:43.762Z,26.47
2022-10-17T10:40:44.016Z,26.49
2022-10-17T10:41:44.274Z,26.67
2022-10-17T10:42:44.511Z,26.73
2022-10-17T10:43:44.766Z,26.39
2022-10-17T10:44:45.055Z,26.32
2022-10-17T10:45:47.960Z,26.72
2022-10-17T10:46:45.543Z,26.64
2022-10-17T10:47:45.814Z,26.59
2022-10-17T10:48:46.107Z,26.58
2022-10-17T10:49:46.337Z,26.72
2022-10-17T10:50:46.626Z,26.96
2022-10-17T10:51:46.874Z,27.35
2022-10-17T10:52:47.200Z,27.32
2022-10-17T10:53:47.389Z,27.14
2022-10-17T10:54:47.732Z,27.14
2022-10-17T10:55:47.939Z,27.06
2022-10-17T10:56:51.134Z,26.91
2022-10-17T10:57:49.518Z,26.91
2022-10-17T10:58:48.801Z,26.67
2022-10-17T10:59:49.082Z,26.47
2022-10-17T11:00:49.396Z,26.21
2022-10-17T11:01:49.607Z,26.15
2022-10-17T11:02:49.980Z,26.36
2022-10-17T11:03:50.273Z,26.58
2022-10-17T11:04:50.477Z,26.58
2022-10-17T11:05:50.764Z,26.52
2022-10-17T11:06:51.078Z,26.31
2022-10-17T11:07:51.245Z,26.06
2022-10-17T11:08:51.530Z,25.99
2022-10-17T11:09:51.764Z,26.05
2022-10-17T11:10:52.039Z,26.46
2022-10-17T11:11:52.351Z,26.74
2022-10-17T11:12:52.584Z,26.96
2022-10-17T11:13:54.089Z,27.13
2022-10-17T11:14:53.214Z,27.38
2022-10-17T11:15:53.499Z,27.70
2022-10-17T11:16:53.765Z,27.80
2022-10-17T11:17:53.993Z,28.14
2022-10-17T11:18:54.301Z,28.17
2022-10-17T11:19:54.522Z,28.19
2022-10-17T11:20:54.780Z,28.31
2022-10-17T11:21:54.992Z,28.29
2022-10-17T11:22:55.264Z,28.44
2022-10-17T11:23:55.581Z,28.70
2022-10-17T11:24:55.813Z,28.62
2022-10-17T11:25:56.091Z,28.40
2022-10-17T11:26:56.322Z,28.62
2022-10-17T11:27:59.755Z,28.84
2022-10-17T11:28:57.902Z,29.22
2022-10-17T11:29:57.022Z,29.41
2022-10-17T11:30:57.266Z,29.56
2022-10-17T11:31:57.581Z,29.81
2022-10-17T11:32:57.845Z,29.97
2022-10-17T11:33:58.149Z,30.29
2022-10-17T11:34:58.481Z,29.71
2022-10-17T11:35:58.950Z,29.62
2022-10-17T11:36:59.036Z,29.33
2022-10-17T11:37:59.400Z,29.29
2022-10-17T11:38:59.636Z,29.04
2022-10-17T11:39:59.940Z,28.78
2022-10-17T11:41:00.374Z,28.82
2022-10-17T11:42:03.356Z,28.80
2022-10-17T11:43:00.814Z,28.96
2022-10-17T11:44:01.051Z,29.16
2022-10-17T11:45:01.382Z,29.31
2022-10-17T11:46:01.654Z,28.96
2022-10-17T11:47:01.946Z,28.88
2022-10-17T11:48:02.156Z,28.75
2022-10-17T11:49:02.500Z,28.81
2022-10-17T11:52:04.427Z,28.93
2022-10-17T11:53:04.185Z,29.33
2022-10-17T11:54:03.971Z,29.68
2022-10-17T11:55:04.106Z,29.81
2022-10-17T11:56:04.472Z,29.87
2022-10-17T11:57:04.707Z,29.41
2022-10-17T11:58:05.051Z,29.01
2022-10-17T11:59:05.261Z,28.65
2022-10-17T12:00:05.536Z,28.36
2022-10-17T12:01:05.888Z,28.09
2022-10-17T12:02:06.066Z,28.03
2022-10-17T12:03:06.365Z,28.06
2022-10-17T12:04:06.733Z,28.35
2022-10-17T12:05:06.893Z,28.36
2022-10-17T12:06:07.168Z,28.31
2022-10-17T12:07:07.524Z,28.23
2022-10-17T12:08:07.733Z,28.36
2022-10-17T12:09:08.050Z,28.68
2022-10-17T12:10:08.388Z,28.41
2022-10-17T12:11:08.746Z,28.54
2022-10-17T12:12:08.941Z,28.63
2022-10-17T12:13:09.169Z,28.51
2022-10-17T12:14:09.460Z,28.22
2022-10-17T12:15:10.257Z,28.26
2022-10-17T12:16:11.746Z,28.44
2022-10-17T12:17:10.224Z,28.41
2022-10-17T12:18:10.497Z,28.31
2022-10-17T12:19:10.771Z,28.19
2022-10-17T12:20:10.994Z,28.40
2022-10-17T12:21:11.309Z,28.31
2022-10-17T12:22:11.494Z,28.43
2022-10-17T12:23:11.783Z,28.60
2022-10-17T12:24:15.500Z,28.82
2022-10-17T12:25:13.283Z,28.97
2022-10-17T12:26:12.617Z,28.91
2022-10-17T12:27:12.847Z,28.91
2022-10-17T12:28:13.078Z,29.06
2022-10-17T12:29:13.330Z,29.13
2022-10-17T12:30:13.612Z,29.08
2022-10-17T12:31:13.934Z,29.16
2022-10-17T12:32:14.162Z,29.15
2022-10-17T12:33:14.418Z,29.00
2022-10-17T12:34:14.663Z,28.85
2022-10-17T12:35:14.903Z,28.65
2022-10-17T12:36:15.181Z,28.33
2022-10-17T12:37:15.421Z,27.95
2022-10-17T12:38:15.756Z,27.89
2022-10-17T12:39:16.012Z,28.07
2022-10-17T12:40:17.170Z,28.14
2022-10-17T12:41:16.562Z,28.29
2022-10-17T12:42:16.874Z,28.50
2022-10-17T12:43:17.129Z,28.65
2022-10-17T12:44:17.398Z,28.70
2022-10-17T12:45:18.052Z,28.29
2022-10-17T12:46:18.055Z,28.21
2022-10-17T12:47:18.403Z,28.06
2022-10-17T12:48:18.842Z,27.92
2022-10-17T12:49:18.970Z,27.41
2022-10-17T12:50:19.236Z,27.20
2022-10-17T12:51:36.349Z,27.35
2022-10-17T12:52:20.723Z,27.33
2022-10-17T12:53:20.052Z,27.47
2022-10-17T12:54:20.772Z,27.35
2022-10-17T12:55:20.740Z,27.35
2022-10-17T12:56:20.825Z,27.39
2022-10-17T12:57:21.099Z,27.32
2022-10-17T12:58:21.419Z,27.31
2022-10-17T12:59:21.598Z,27.32
2022-10-17T13:00:21.877Z,27.36
2022-10-17T13:01:24.728Z,27.41
2022-10-17T13:02:22.370Z,27.43
2022-10-17T13:03:22.640Z,27.50
2022-10-17T13:04:22.895Z,27.59
2022-10-17T13:05:23.231Z,27.62